Weather at Tanjung Manis Airport

Public forecast

Using degrees Celsius for public forecast. Weather courtesy of forecast.io.

Closest aviation weather report (METAR) to Tanjung Manis Airport

Closest report is Sibu Airport, 47.2 nm (87.5 km) E.

2024/05/27 22:00 (retrieved 26 minutes ago)

WBGS 272200Z 14005KT 110V190 9999 -TSRA FEW005 FEW015CB SCT016 25/25 Q1009

Closest aviation forecast (TAF) to Tanjung Manis Airport

Closest forecast is Sibu Airport, 47.2 nm (87.5 km) E.

2024/05/27 18:00 (retrieved 4 hours ago)

TAF WBGS 271700Z 2718/2818 VRB02KT 9999 FEW018 TEMPO 2719/2721 5000 +RA FEW005